sensor_id;sensor_type;location;lat;lon;timestamp;P1;durP1;ratioP1;P2;durP2;ratioP2
56511;SDS011;42408;53.238;5.686;2022-07-29T00:02:24;5.15;;;2.50;;
56511;SDS011;42408;53.238;5.686;2022-07-29T00:04:50;5.97;;;2.47;;
56511;SDS011;42408;53.238;5.686;2022-07-29T00:07:16;4.97;;;2.35;;
56511;SDS011;42408;53.238;5.686;2022-07-29T00:09:42;4.23;;;2.47;;
56511;SDS011;42408;53.238;5.686;2022-07-29T00:12:08;6.27;;;2.67;;
56511;SDS011;42408;53.238;5.686;2022-07-29T00:14:34;4.00;;;2.15;;
56511;SDS011;42408;53.238;5.686;2022-07-29T00:16:59;4.13;;;2.23;;
56511;SDS011;42408;53.238;5.686;2022-07-29T00:19:25;5.43;;;2.60;;
56511;SDS011;42408;53.238;5.686;2022-07-29T00:21:50;4.60;;;2.10;;
56511;SDS011;42408;53.238;5.686;2022-07-29T00:24:16;4.40;;;2.23;;
56511;SDS011;42408;53.238;5.686;2022-07-29T00:26:42;5.83;;;2.50;;
56511;SDS011;42408;53.238;5.686;2022-07-29T00:29:07;5.30;;;2.30;;
56511;SDS011;42408;53.238;5.686;2022-07-29T00:31:33;5.23;;;2.37;;
56511;SDS011;42408;53.238;5.686;2022-07-29T00:33:58;6.20;;;2.27;;
56511;SDS011;42408;53.238;5.686;2022-07-29T00:36:24;6.27;;;2.70;;
56511;SDS011;42408;53.238;5.686;2022-07-29T00:38:50;6.37;;;3.20;;
56511;SDS011;42408;53.238;5.686;2022-07-29T00:41:16;5.82;;;2.40;;
56511;SDS011;42408;53.238;5.686;2022-07-29T00:43:43;5.43;;;2.50;;
56511;SDS011;42408;53.238;5.686;2022-07-29T00:46:09;6.53;;;2.50;;
56511;SDS011;42408;53.238;5.686;2022-07-29T00:48:34;5.90;;;2.58;;
56511;SDS011;42408;53.238;5.686;2022-07-29T00:51:01;4.97;;;2.60;;
56511;SDS011;42408;53.238;5.686;2022-07-29T00:53:29;5.32;;;2.97;;
56511;SDS011;42408;53.238;5.686;2022-07-29T00:55:55;4.05;;;2.28;;
56511;SDS011;42408;53.238;5.686;2022-07-29T00:58:22;4.20;;;2.40;;
56511;SDS011;42408;53.238;5.686;2022-07-29T01:00:48;4.65;;;2.38;;
56511;SDS011;42408;53.238;5.686;2022-07-29T01:03:14;5.07;;;2.80;;
56511;SDS011;42408;53.238;5.686;2022-07-29T01:05:40;4.80;;;2.43;;
56511;SDS011;42408;53.238;5.686;2022-07-29T01:08:08;4.40;;;2.60;;
56511;SDS011;42408;53.238;5.686;2022-07-29T01:10:36;6.43;;;2.40;;
56511;SDS011;42408;53.238;5.686;2022-07-29T01:13:03;3.60;;;2.30;;
56511;SDS011;42408;53.238;5.686;2022-07-29T01:15:29;4.88;;;2.78;;
56511;SDS011;42408;53.238;5.686;2022-07-29T01:17:59;4.43;;;2.23;;
56511;SDS011;42408;53.238;5.686;2022-07-29T01:23:30;5.82;;;2.65;;
56511;SDS011;42408;53.238;5.686;2022-07-29T01:26:28;6.78;;;2.65;;
56511;SDS011;42408;53.238;5.686;2022-07-29T01:32:12;5.53;;;3.47;;
56511;SDS011;42408;53.238;5.686;2022-07-29T01:34:47;7.53;;;3.17;;
56511;SDS011;42408;53.238;5.686;2022-07-29T01:40:14;5.45;;;3.10;;
56511;SDS011;42408;53.238;5.686;2022-07-29T01:42:50;6.57;;;3.60;;
56511;SDS011;42408;53.238;5.686;2022-07-29T01:50:46;9.02;;;3.30;;
56511;SDS011;42408;53.238;5.686;2022-07-29T01:53:15;6.80;;;3.33;;
56511;SDS011;42408;53.238;5.686;2022-07-29T01:55:49;6.72;;;3.28;;
56511;SDS011;42408;53.238;5.686;2022-07-29T01:58:17;4.55;;;3.20;;
56511;SDS011;42408;53.238;5.686;2022-07-29T02:00:44;6.30;;;3.25;;
56511;SDS011;42408;53.238;5.686;2022-07-29T02:03:11;7.28;;;3.45;;
56511;SDS011;42408;53.238;5.686;2022-07-29T02:05:39;6.60;;;3.45;;
56511;SDS011;42408;53.238;5.686;2022-07-29T02:08:07;7.65;;;3.33;;
56511;SDS011;42408;53.238;5.686;2022-07-29T02:10:34;5.95;;;3.50;;
56511;SDS011;42408;53.238;5.686;2022-07-29T02:13:02;6.32;;;3.30;;
56511;SDS011;42408;53.238;5.686;2022-07-29T02:15:30;5.35;;;2.95;;
56511;SDS011;42408;53.238;5.686;2022-07-29T02:18:00;6.55;;;3.10;;
56511;SDS011;42408;53.238;5.686;2022-07-29T02:20:28;6.53;;;3.47;;
56511;SDS011;42408;53.238;5.686;2022-07-29T02:22:55;5.40;;;3.45;;
56511;SDS011;42408;53.238;5.686;2022-07-29T02:25:22;8.20;;;3.72;;
56511;SDS011;42408;53.238;5.686;2022-07-29T02:30:16;7.72;;;3.50;;
56511;SDS011;42408;53.238;5.686;2022-07-29T02:32:43;7.00;;;3.50;;
56511;SDS011;42408;53.238;5.686;2022-07-29T02:35:12;8.00;;;3.42;;
56511;SDS011;42408;53.238;5.686;2022-07-29T02:37:39;7.50;;;3.58;;
56511;SDS011;42408;53.238;5.686;2022-07-29T02:40:07;6.13;;;3.45;;
56511;SDS011;42408;53.238;5.686;2022-07-29T02:42:36;7.15;;;3.78;;
56511;SDS011;42408;53.238;5.686;2022-07-29T02:45:04;6.22;;;3.50;;
56511;SDS011;42408;53.238;5.686;2022-07-29T02:47:34;6.63;;;3.90;;
56511;SDS011;42408;53.238;5.686;2022-07-29T02:50:21;8.18;;;3.67;;
56511;SDS011;42408;53.238;5.686;2022-07-29T02:53:02;9.27;;;3.78;;
56511;SDS011;42408;53.238;5.686;2022-07-29T02:55:46;7.97;;;4.00;;
56511;SDS011;42408;53.238;5.686;2022-07-29T03:01:07;7.60;;;4.03;;
56511;SDS011;42408;53.238;5.686;2022-07-29T03:03:37;5.75;;;3.63;;
56511;SDS011;42408;53.238;5.686;2022-07-29T03:06:04;7.28;;;3.65;;
56511;SDS011;42408;53.238;5.686;2022-07-29T03:08:31;8.57;;;4.10;;
56511;SDS011;42408;53.238;5.686;2022-07-29T03:10:57;5.32;;;3.58;;
56511;SDS011;42408;53.238;5.686;2022-07-29T03:13:25;8.25;;;4.05;;
56511;SDS011;42408;53.238;5.686;2022-07-29T03:15:52;6.00;;;3.70;;
56511;SDS011;42408;53.238;5.686;2022-07-29T03:20:44;5.45;;;3.20;;
56511;SDS011;42408;53.238;5.686;2022-07-29T03:23:10;5.87;;;3.87;;
56511;SDS011;42408;53.238;5.686;2022-07-29T03:25:36;8.13;;;3.70;;
56511;SDS011;42408;53.238;5.686;2022-07-29T03:28:01;6.10;;;3.83;;
56511;SDS011;42408;53.238;5.686;2022-07-29T03:30:27;7.13;;;3.90;;
56511;SDS011;42408;53.238;5.686;2022-07-29T03:32:55;5.93;;;3.78;;
56511;SDS011;42408;53.238;5.686;2022-07-29T03:35:21;5.68;;;3.33;;
56511;SDS011;42408;53.238;5.686;2022-07-29T03:37:47;7.03;;;3.57;;
56511;SDS011;42408;53.238;5.686;2022-07-29T03:40:14;6.72;;;3.83;;
56511;SDS011;42408;53.238;5.686;2022-07-29T03:42:46;5.03;;;3.45;;
56511;SDS011;42408;53.238;5.686;2022-07-29T03:45:13;8.82;;;3.40;;
56511;SDS011;42408;53.238;5.686;2022-07-29T03:47:43;6.38;;;3.30;;
56511;SDS011;42408;53.238;5.686;2022-07-29T03:50:14;7.07;;;3.28;;
56511;SDS011;42408;53.238;5.686;2022-07-29T03:52:40;6.57;;;3.85;;
56511;SDS011;42408;53.238;5.686;2022-07-29T03:55:06;7.63;;;3.60;;
56511;SDS011;42408;53.238;5.686;2022-07-29T03:57:33;5.22;;;2.95;;
56511;SDS011;42408;53.238;5.686;2022-07-29T04:00:00;6.40;;;3.40;;
56511;SDS011;42408;53.238;5.686;2022-07-29T04:02:28;6.35;;;3.70;;
56511;SDS011;42408;53.238;5.686;2022-07-29T04:04:54;5.67;;;3.60;;
56511;SDS011;42408;53.238;5.686;2022-07-29T04:07:20;5.93;;;3.93;;
56511;SDS011;42408;53.238;5.686;2022-07-29T04:09:45;5.90;;;3.47;;
56511;SDS011;42408;53.238;5.686;2022-07-29T04:12:11;7.60;;;3.53;;
56511;SDS011;42408;53.238;5.686;2022-07-29T04:14:37;9.87;;;4.00;;
56511;SDS011;42408;53.238;5.686;2022-07-29T04:17:03;7.60;;;3.80;;
56511;SDS011;42408;53.238;5.686;2022-07-29T04:19:29;6.13;;;3.50;;
56511;SDS011;42408;53.238;5.686;2022-07-29T04:21:56;7.40;;;3.50;;
56511;SDS011;42408;53.238;5.686;2022-07-29T04:24:23;6.93;;;3.83;;
56511;SDS011;42408;53.238;5.686;2022-07-29T04:26:48;7.50;;;3.80;;
56511;SDS011;42408;53.238;5.686;2022-07-29T04:29:14;7.67;;;3.40;;
56511;SDS011;42408;53.238;5.686;2022-07-29T04:31:40;10.93;;;4.10;;
56511;SDS011;42408;53.238;5.686;2022-07-29T04:34:07;8.40;;;3.47;;
56511;SDS011;42408;53.238;5.686;2022-07-29T04:36:32;8.25;;;3.28;;
56511;SDS011;42408;53.238;5.686;2022-07-29T04:38:58;8.40;;;3.10;;
56511;SDS011;42408;53.238;5.686;2022-07-29T04:41:25;7.18;;;3.08;;
56511;SDS011;42408;53.238;5.686;2022-07-29T04:43:51;5.43;;;2.90;;
56511;SDS011;42408;53.238;5.686;2022-07-29T04:46:16;8.27;;;3.27;;
56511;SDS011;42408;53.238;5.686;2022-07-29T04:48:42;8.47;;;3.20;;
56511;SDS011;42408;53.238;5.686;2022-07-29T04:51:11;7.43;;;3.05;;
56511;SDS011;42408;53.238;5.686;2022-07-29T04:53:36;6.73;;;3.10;;
56511;SDS011;42408;53.238;5.686;2022-07-29T04:56:02;7.20;;;3.10;;
56511;SDS011;42408;53.238;5.686;2022-07-29T04:58:28;7.60;;;3.13;;
56511;SDS011;42408;53.238;5.686;2022-07-29T05:00:54;5.30;;;2.77;;
56511;SDS011;42408;53.238;5.686;2022-07-29T05:03:19;6.70;;;3.00;;
56511;SDS011;42408;53.238;5.686;2022-07-29T05:05:45;7.77;;;2.70;;
56511;SDS011;42408;53.238;5.686;2022-07-29T05:08:10;10.40;;;3.17;;
56511;SDS011;42408;53.238;5.686;2022-07-29T05:10:36;6.20;;;2.90;;
56511;SDS011;42408;53.238;5.686;2022-07-29T05:13:03;5.15;;;2.88;;
56511;SDS011;42408;53.238;5.686;2022-07-29T05:15:33;5.22;;;2.90;;
56511;SDS011;42408;53.238;5.686;2022-07-29T05:17:59;7.80;;;3.05;;
56511;SDS011;42408;53.238;5.686;2022-07-29T05:20:25;5.80;;;3.05;;
56511;SDS011;42408;53.238;5.686;2022-07-29T05:22:53;5.80;;;2.72;;
56511;SDS011;42408;53.238;5.686;2022-07-29T05:27:45;6.55;;;3.28;;
56511;SDS011;42408;53.238;5.686;2022-07-29T05:30:11;6.00;;;2.80;;
56511;SDS011;42408;53.238;5.686;2022-07-29T05:32:37;7.90;;;3.20;;
56511;SDS011;42408;53.238;5.686;2022-07-29T05:35:02;7.63;;;2.40;;
56511;SDS011;42408;53.238;5.686;2022-07-29T05:37:28;7.73;;;3.53;;
56511;SDS011;42408;53.238;5.686;2022-07-29T05:39:53;7.03;;;3.10;;
56511;SDS011;42408;53.238;5.686;2022-07-29T05:42:19;8.13;;;2.97;;
56511;SDS011;42408;53.238;5.686;2022-07-29T05:44:45;9.37;;;3.23;;
56511;SDS011;42408;53.238;5.686;2022-07-29T05:47:12;8.30;;;2.92;;
56511;SDS011;42408;53.238;5.686;2022-07-29T05:49:38;6.63;;;2.37;;
56511;SDS011;42408;53.238;5.686;2022-07-29T05:52:04;8.47;;;2.73;;
56511;SDS011;42408;53.238;5.686;2022-07-29T05:54:29;9.10;;;2.63;;
56511;SDS011;42408;53.238;5.686;2022-07-29T05:56:55;4.63;;;2.43;;
56511;SDS011;42408;53.238;5.686;2022-07-29T05:59:21;7.70;;;2.60;;
56511;SDS011;42408;53.238;5.686;2022-07-29T06:01:46;7.77;;;2.70;;
56511;SDS011;42408;53.238;5.686;2022-07-29T06:04:12;6.33;;;2.87;;
56511;SDS011;42408;53.238;5.686;2022-07-29T06:06:38;7.07;;;2.30;;
56511;SDS011;42408;53.238;5.686;2022-07-29T06:09:03;6.80;;;2.40;;
56511;SDS011;42408;53.238;5.686;2022-07-29T06:11:29;5.13;;;2.70;;
56511;SDS011;42408;53.238;5.686;2022-07-29T06:13:55;6.77;;;2.70;;
56511;SDS011;42408;53.238;5.686;2022-07-29T06:16:20;6.93;;;2.50;;
56511;SDS011;42408;53.238;5.686;2022-07-29T06:18:46;9.00;;;3.23;;
56511;SDS011;42408;53.238;5.686;2022-07-29T06:21:11;5.57;;;2.27;;
56511;SDS011;42408;53.238;5.686;2022-07-29T06:23:37;6.63;;;2.77;;
56511;SDS011;42408;53.238;5.686;2022-07-29T06:26:03;5.93;;;2.72;;
56511;SDS011;42408;53.238;5.686;2022-07-29T06:28:29;7.93;;;2.27;;
56511;SDS011;42408;53.238;5.686;2022-07-29T06:30:55;5.90;;;2.60;;
56511;SDS011;42408;53.238;5.686;2022-07-29T06:33:20;4.70;;;2.10;;
56511;SDS011;42408;53.238;5.686;2022-07-29T06:35:46;6.23;;;2.07;;
56511;SDS011;42408;53.238;5.686;2022-07-29T06:38:12;5.20;;;2.10;;
56511;SDS011;42408;53.238;5.686;2022-07-29T06:40:42;5.63;;;2.10;;
56511;SDS011;42408;53.238;5.686;2022-07-29T06:43:28;5.68;;;2.00;;
56511;SDS011;42408;53.238;5.686;2022-07-29T06:45:59;4.78;;;2.05;;
56511;SDS011;42408;53.238;5.686;2022-07-29T06:48:26;4.65;;;2.20;;
56511;SDS011;42408;53.238;5.686;2022-07-29T06:50:52;5.30;;;2.22;;
56511;SDS011;42408;53.238;5.686;2022-07-29T06:53:17;9.57;;;2.57;;
56511;SDS011;42408;53.238;5.686;2022-07-29T06:55:43;6.43;;;2.53;;
56511;SDS011;42408;53.238;5.686;2022-07-29T06:58:09;8.23;;;2.50;;
56511;SDS011;42408;53.238;5.686;2022-07-29T07:03:01;5.10;;;2.15;;
56511;SDS011;42408;53.238;5.686;2022-07-29T07:05:27;7.77;;;2.73;;
56511;SDS011;42408;53.238;5.686;2022-07-29T07:07:52;4.73;;;2.10;;
56511;SDS011;42408;53.238;5.686;2022-07-29T07:10:18;6.80;;;2.30;;
56511;SDS011;42408;53.238;5.686;2022-07-29T07:12:43;5.77;;;2.87;;
56511;SDS011;42408;53.238;5.686;2022-07-29T07:15:09;5.20;;;2.40;;
56511;SDS011;42408;53.238;5.686;2022-07-29T07:17:35;6.27;;;2.50;;
56511;SDS011;42408;53.238;5.686;2022-07-29T07:20:00;4.90;;;2.13;;
56511;SDS011;42408;53.238;5.686;2022-07-29T07:22:26;7.27;;;2.20;;
56511;SDS011;42408;53.238;5.686;2022-07-29T07:24:52;5.00;;;2.30;;
56511;SDS011;42408;53.238;5.686;2022-07-29T07:27:17;6.03;;;2.10;;
56511;SDS011;42408;53.238;5.686;2022-07-29T07:29:43;6.70;;;2.50;;
56511;SDS011;42408;53.238;5.686;2022-07-29T07:32:08;7.27;;;2.57;;
56511;SDS011;42408;53.238;5.686;2022-07-29T07:34:34;7.37;;;2.53;;
56511;SDS011;42408;53.238;5.686;2022-07-29T07:37:00;3.93;;;2.00;;
56511;SDS011;42408;53.238;5.686;2022-07-29T07:39:25;7.53;;;1.83;;
56511;SDS011;42408;53.238;5.686;2022-07-29T07:41:51;7.87;;;2.10;;
56511;SDS011;42408;53.238;5.686;2022-07-29T07:44:17;7.80;;;2.53;;
56511;SDS011;42408;53.238;5.686;2022-07-29T07:46:42;4.73;;;2.03;;
56511;SDS011;42408;53.238;5.686;2022-07-29T07:49:10;5.75;;;2.25;;
56511;SDS011;42408;53.238;5.686;2022-07-29T07:51:35;6.78;;;2.47;;
56511;SDS011;42408;53.238;5.686;2022-07-29T07:54:01;4.23;;;2.10;;
56511;SDS011;42408;53.238;5.686;2022-07-29T07:56:27;6.73;;;2.80;;
56511;SDS011;42408;53.238;5.686;2022-07-29T07:58:53;6.80;;;2.20;;
56511;SDS011;42408;53.238;5.686;2022-07-29T08:01:18;4.47;;;2.30;;
56511;SDS011;42408;53.238;5.686;2022-07-29T08:03:47;5.25;;;2.13;;
56511;SDS011;42408;53.238;5.686;2022-07-29T08:06:14;7.47;;;2.80;;
56511;SDS011;42408;53.238;5.686;2022-07-29T08:08:39;4.23;;;2.03;;
56511;SDS011;42408;53.238;5.686;2022-07-29T08:11:05;6.60;;;2.47;;
56511;SDS011;42408;53.238;5.686;2022-07-29T08:13:31;8.10;;;2.30;;
56511;SDS011;42408;53.238;5.686;2022-07-29T08:15:57;8.40;;;2.67;;
56511;SDS011;42408;53.238;5.686;2022-07-29T08:18:35;7.40;;;2.50;;
56511;SDS011;42408;53.238;5.686;2022-07-29T08:21:01;5.37;;;2.30;;
56511;SDS011;42408;53.238;5.686;2022-07-29T08:23:26;6.97;;;2.57;;
56511;SDS011;42408;53.238;5.686;2022-07-29T08:25:59;6.82;;;2.25;;
56511;SDS011;42408;53.238;5.686;2022-07-29T08:28:25;7.57;;;2.65;;
56511;SDS011;42408;53.238;5.686;2022-07-29T08:30:51;6.97;;;3.10;;
56511;SDS011;42408;53.238;5.686;2022-07-29T08:33:17;6.63;;;2.30;;
56511;SDS011;42408;53.238;5.686;2022-07-29T08:35:43;6.10;;;2.43;;
56511;SDS011;42408;53.238;5.686;2022-07-29T08:38:08;5.47;;;2.10;;
56511;SDS011;42408;53.238;5.686;2022-07-29T08:40:34;4.47;;;2.45;;
56511;SDS011;42408;53.238;5.686;2022-07-29T08:43:04;7.13;;;2.20;;
56511;SDS011;42408;53.238;5.686;2022-07-29T08:45:35;6.65;;;2.50;;
56511;SDS011;42408;53.238;5.686;2022-07-29T08:48:09;7.15;;;2.50;;
56511;SDS011;42408;53.238;5.686;2022-07-29T08:50:37;7.13;;;2.50;;
56511;SDS011;42408;53.238;5.686;2022-07-29T08:53:03;6.80;;;2.60;;
56511;SDS011;42408;53.238;5.686;2022-07-29T08:55:31;5.53;;;2.17;;
56511;SDS011;42408;53.238;5.686;2022-07-29T08:57:57;6.15;;;2.50;;
56511;SDS011;42408;53.238;5.686;2022-07-29T09:00:23;6.07;;;2.47;;
56511;SDS011;42408;53.238;5.686;2022-07-29T09:02:51;5.88;;;2.40;;
56511;SDS011;42408;53.238;5.686;2022-07-29T09:05:22;7.20;;;2.65;;
56511;SDS011;42408;53.238;5.686;2022-07-29T09:07:49;5.82;;;2.33;;
56511;SDS011;42408;53.238;5.686;2022-07-29T09:10:15;7.15;;;2.50;;
56511;SDS011;42408;53.238;5.686;2022-07-29T09:12:41;9.23;;;2.27;;
56511;SDS011;42408;53.238;5.686;2022-07-29T09:15:07;8.67;;;3.20;;
56511;SDS011;42408;53.238;5.686;2022-07-29T09:17:39;7.53;;;3.13;;
56511;SDS011;42408;53.238;5.686;2022-07-29T09:20:10;6.60;;;2.50;;
56511;SDS011;42408;53.238;5.686;2022-07-29T09:22:37;8.35;;;2.67;;
56511;SDS011;42408;53.238;5.686;2022-07-29T09:25:03;6.47;;;2.73;;
56511;SDS011;42408;53.238;5.686;2022-07-29T09:27:28;7.75;;;2.85;;
56511;SDS011;42408;53.238;5.686;2022-07-29T09:29:58;7.40;;;2.67;;
56511;SDS011;42408;53.238;5.686;2022-07-29T09:32:30;7.70;;;2.95;;
56511;SDS011;42408;53.238;5.686;2022-07-29T09:37:42;6.18;;;2.72;;
56511;SDS011;42408;53.238;5.686;2022-07-29T09:40:16;5.38;;;2.33;;
56511;SDS011;42408;53.238;5.686;2022-07-29T09:42:46;7.97;;;3.10;;
56511;SDS011;42408;53.238;5.686;2022-07-29T09:45:12;6.75;;;2.47;;
56511;SDS011;42408;53.238;5.686;2022-07-29T09:47:50;8.05;;;3.10;;
56511;SDS011;42408;53.238;5.686;2022-07-29T09:50:16;6.13;;;3.00;;
56511;SDS011;42408;53.238;5.686;2022-07-29T09:52:48;5.50;;;2.83;;
56511;SDS011;42408;53.238;5.686;2022-07-29T09:55:15;8.50;;;2.72;;
56511;SDS011;42408;53.238;5.686;2022-07-29T09:57:41;4.70;;;2.38;;
56511;SDS011;42408;53.238;5.686;2022-07-29T10:00:11;4.93;;;2.60;;
56511;SDS011;42408;53.238;5.686;2022-07-29T10:02:40;6.72;;;2.45;;
56511;SDS011;42408;53.238;5.686;2022-07-29T10:07:51;6.78;;;2.95;;
56511;SDS011;42408;53.238;5.686;2022-07-29T10:10:19;8.05;;;2.65;;
56511;SDS011;42408;53.238;5.686;2022-07-29T10:12:55;7.65;;;2.75;;
56511;SDS011;42408;53.238;5.686;2022-07-29T10:15:23;4.95;;;2.83;;
56511;SDS011;42408;53.238;5.686;2022-07-29T10:17:50;7.03;;;2.80;;
56511;SDS011;42408;53.238;5.686;2022-07-29T10:20:17;7.43;;;2.95;;
56511;SDS011;42408;53.238;5.686;2022-07-29T10:22:44;5.78;;;2.70;;
56511;SDS011;42408;53.238;5.686;2022-07-29T10:25:11;8.45;;;3.10;;
56511;SDS011;42408;53.238;5.686;2022-07-29T10:27:37;9.60;;;2.80;;
56511;SDS011;42408;53.238;5.686;2022-07-29T10:30:04;6.40;;;2.65;;
56511;SDS011;42408;53.238;5.686;2022-07-29T10:38:04;6.00;;;2.97;;
56511;SDS011;42408;53.238;5.686;2022-07-29T10:43:46;8.55;;;3.13;;
56511;SDS011;42408;53.238;5.686;2022-07-29T10:46:13;9.00;;;3.30;;
56511;SDS011;42408;53.238;5.686;2022-07-29T10:54:19;8.27;;;3.70;;
56511;SDS011;42408;53.238;5.686;2022-07-29T10:57:11;7.72;;;3.20;;
56511;SDS011;42408;53.238;5.686;2022-07-29T10:59:46;7.45;;;3.58;;
56511;SDS011;42408;53.238;5.686;2022-07-29T11:02:40;8.05;;;3.20;;
56511;SDS011;42408;53.238;5.686;2022-07-29T11:07:29;6.57;;;3.35;;
56511;SDS011;42408;53.238;5.686;2022-07-29T11:10:19;7.07;;;3.58;;
56511;SDS011;42408;53.238;5.686;2022-07-29T11:12:46;8.30;;;3.45;;
56511;SDS011;42408;53.238;5.686;2022-07-29T11:15:13;6.47;;;3.53;;
56511;SDS011;42408;53.238;5.686;2022-07-29T11:31:36;7.65;;;3.50;;
56511;SDS011;42408;53.238;5.686;2022-07-29T11:39:34;8.77;;;3.65;;
56511;SDS011;42408;53.238;5.686;2022-07-29T11:44:58;9.07;;;3.47;;
56511;SDS011;42408;53.238;5.686;2022-07-29T11:47:30;10.23;;;4.07;;
56511;SDS011;42408;53.238;5.686;2022-07-29T11:50:00;6.93;;;4.05;;
56511;SDS011;42408;53.238;5.686;2022-07-29T11:52:34;8.10;;;3.67;;
56511;SDS011;42408;53.238;5.686;2022-07-29T11:55:08;7.30;;;3.40;;
56511;SDS011;42408;53.238;5.686;2022-07-29T11:57:35;11.27;;;3.33;;
56511;SDS011;42408;53.238;5.686;2022-07-29T12:00:02;10.13;;;4.05;;
56511;SDS011;42408;53.238;5.686;2022-07-29T12:02:39;8.50;;;3.75;;
56511;SDS011;42408;53.238;5.686;2022-07-29T12:05:07;7.43;;;4.05;;
56511;SDS011;42408;53.238;5.686;2022-07-29T12:09:59;10.90;;;4.07;;
56511;SDS011;42408;53.238;5.686;2022-07-29T12:12:26;8.95;;;4.22;;
56511;SDS011;42408;53.238;5.686;2022-07-29T12:14:52;7.90;;;3.58;;
56511;SDS011;42408;53.238;5.686;2022-07-29T12:19:55;8.07;;;3.78;;
56511;SDS011;42408;53.238;5.686;2022-07-29T12:22:29;8.30;;;3.45;;
56511;SDS011;42408;53.238;5.686;2022-07-29T12:25:09;8.63;;;3.90;;
56511;SDS011;42408;53.238;5.686;2022-07-29T12:27:37;8.98;;;3.80;;
56511;SDS011;42408;53.238;5.686;2022-07-29T12:30:13;9.07;;;3.88;;
56511;SDS011;42408;53.238;5.686;2022-07-29T12:35:12;8.63;;;4.10;;
56511;SDS011;42408;53.238;5.686;2022-07-29T12:37:44;9.32;;;4.00;;
56511;SDS011;42408;53.238;5.686;2022-07-29T12:40:13;7.30;;;4.00;;
56511;SDS011;42408;53.238;5.686;2022-07-29T12:42:41;7.45;;;3.90;;
56511;SDS011;42408;53.238;5.686;2022-07-29T12:45:29;9.32;;;4.30;;
56511;SDS011;42408;53.238;5.686;2022-07-29T12:47:56;7.15;;;3.78;;
56511;SDS011;42408;53.238;5.686;2022-07-29T12:50:21;8.00;;;4.13;;
56511;SDS011;42408;53.238;5.686;2022-07-29T12:52:47;7.70;;;3.80;;
56511;SDS011;42408;53.238;5.686;2022-07-29T12:55:13;8.23;;;3.78;;
56511;SDS011;42408;53.238;5.686;2022-07-29T12:57:46;8.55;;;3.70;;
56511;SDS011;42408;53.238;5.686;2022-07-29T13:00:15;4.88;;;3.08;;
56511;SDS011;42408;53.238;5.686;2022-07-29T13:02:41;11.30;;;3.33;;
56511;SDS011;42408;53.238;5.686;2022-07-29T13:07:34;9.38;;;3.50;;
56511;SDS011;42408;53.238;5.686;2022-07-29T13:13:02;8.82;;;4.20;;
56511;SDS011;42408;53.238;5.686;2022-07-29T13:15:39;11.10;;;4.60;;
56511;SDS011;42408;53.238;5.686;2022-07-29T13:20:52;10.15;;;4.13;;
56511;SDS011;42408;53.238;5.686;2022-07-29T13:23:18;10.70;;;4.53;;
56511;SDS011;42408;53.238;5.686;2022-07-29T13:25:43;9.27;;;4.47;;
56511;SDS011;42408;53.238;5.686;2022-07-29T13:28:09;9.67;;;4.57;;
56511;SDS011;42408;53.238;5.686;2022-07-29T13:30:36;13.10;;;5.85;;
56511;SDS011;42408;53.238;5.686;2022-07-29T13:33:02;9.38;;;4.53;;
56511;SDS011;42408;53.238;5.686;2022-07-29T13:35:28;10.97;;;5.03;;
56511;SDS011;42408;53.238;5.686;2022-07-29T13:37:54;8.45;;;4.25;;
56511;SDS011;42408;53.238;5.686;2022-07-29T13:40:20;9.10;;;3.75;;
56511;SDS011;42408;53.238;5.686;2022-07-29T13:42:46;11.57;;;4.57;;
56511;SDS011;42408;53.238;5.686;2022-07-29T13:45:11;11.27;;;5.00;;
56511;SDS011;42408;53.238;5.686;2022-07-29T13:47:38;6.80;;;4.15;;
56511;SDS011;42408;53.238;5.686;2022-07-29T13:50:04;9.15;;;4.20;;
56511;SDS011;42408;53.238;5.686;2022-07-29T13:52:31;8.90;;;4.60;;
56511;SDS011;42408;53.238;5.686;2022-07-29T13:54:56;12.67;;;4.50;;
56511;SDS011;42408;53.238;5.686;2022-07-29T13:57:22;7.47;;;4.37;;
56511;SDS011;42408;53.238;5.686;2022-07-29T13:59:47;8.07;;;4.23;;
56511;SDS011;42408;53.238;5.686;2022-07-29T14:02:13;8.23;;;4.40;;
56511;SDS011;42408;53.238;5.686;2022-07-29T14:04:39;10.70;;;4.33;;
56511;SDS011;42408;53.238;5.686;2022-07-29T14:07:05;9.82;;;4.75;;
56511;SDS011;42408;53.238;5.686;2022-07-29T14:09:31;12.60;;;4.85;;
56511;SDS011;42408;53.238;5.686;2022-07-29T14:11:56;11.70;;;4.70;;
56511;SDS011;42408;53.238;5.686;2022-07-29T14:14:22;8.30;;;4.07;;
56511;SDS011;42408;53.238;5.686;2022-07-29T14:16:47;8.13;;;4.37;;
56511;SDS011;42408;53.238;5.686;2022-07-29T14:19:13;7.70;;;4.00;;
56511;SDS011;42408;53.238;5.686;2022-07-29T14:21:39;9.67;;;4.03;;
56511;SDS011;42408;53.238;5.686;2022-07-29T14:24:05;12.48;;;4.50;;
56511;SDS011;42408;53.238;5.686;2022-07-29T14:26:31;11.73;;;4.45;;
56511;SDS011;42408;53.238;5.686;2022-07-29T14:28:56;9.50;;;4.40;;
56511;SDS011;42408;53.238;5.686;2022-07-29T14:31:22;10.43;;;4.43;;
56511;SDS011;42408;53.238;5.686;2022-07-29T14:33:48;9.63;;;3.70;;
56511;SDS011;42408;53.238;5.686;2022-07-29T14:36:14;8.95;;;4.40;;
56511;SDS011;42408;53.238;5.686;2022-07-29T14:38:39;9.10;;;4.03;;
56511;SDS011;42408;53.238;5.686;2022-07-29T14:41:05;10.63;;;4.45;;
56511;SDS011;42408;53.238;5.686;2022-07-29T14:43:32;6.65;;;3.40;;
56511;SDS011;42408;53.238;5.686;2022-07-29T14:45:59;8.50;;;3.75;;
56511;SDS011;42408;53.238;5.686;2022-07-29T14:48:24;7.43;;;3.60;;
56511;SDS011;42408;53.238;5.686;2022-07-29T14:50:50;7.87;;;3.23;;
56511;SDS011;42408;53.238;5.686;2022-07-29T14:53:16;7.93;;;4.67;;
56511;SDS011;42408;53.238;5.686;2022-07-29T14:55:41;8.77;;;4.13;;
56511;SDS011;42408;53.238;5.686;2022-07-29T14:58:07;10.90;;;4.43;;
56511;SDS011;42408;53.238;5.686;2022-07-29T15:00:33;7.93;;;4.00;;
56511;SDS011;42408;53.238;5.686;2022-07-29T15:02:59;7.67;;;4.37;;
56511;SDS011;42408;53.238;5.686;2022-07-29T15:05:25;9.73;;;4.30;;
56511;SDS011;42408;53.238;5.686;2022-07-29T15:07:51;10.52;;;4.45;;
56511;SDS011;42408;53.238;5.686;2022-07-29T15:10:17;10.10;;;4.07;;
56511;SDS011;42408;53.238;5.686;2022-07-29T15:12:42;7.18;;;4.15;;
56511;SDS011;42408;53.238;5.686;2022-07-29T15:15:08;7.80;;;3.80;;
56511;SDS011;42408;53.238;5.686;2022-07-29T15:20:00;8.35;;;3.58;;
56511;SDS011;42408;53.238;5.686;2022-07-29T15:22:26;8.40;;;4.10;;
56511;SDS011;42408;53.238;5.686;2022-07-29T15:24:51;12.32;;;4.22;;
56511;SDS011;42408;53.238;5.686;2022-07-29T15:27:17;10.10;;;3.93;;
56511;SDS011;42408;53.238;5.686;2022-07-29T15:29:43;10.77;;;4.20;;
56511;SDS011;42408;53.238;5.686;2022-07-29T15:32:11;11.07;;;4.05;;
56511;SDS011;42408;53.238;5.686;2022-07-29T15:34:37;8.00;;;4.10;;
56511;SDS011;42408;53.238;5.686;2022-07-29T15:37:03;12.52;;;4.18;;
56511;SDS011;42408;53.238;5.686;2022-07-29T15:41:57;11.32;;;4.07;;
56511;SDS011;42408;53.238;5.686;2022-07-29T15:44:26;8.25;;;3.88;;
56511;SDS011;42408;53.238;5.686;2022-07-29T15:46:51;10.87;;;4.63;;
56511;SDS011;42408;53.238;5.686;2022-07-29T15:49:33;9.95;;;4.38;;
56511;SDS011;42408;53.238;5.686;2022-07-29T15:52:04;9.68;;;4.72;;
56511;SDS011;42408;53.238;5.686;2022-07-29T15:54:33;11.82;;;3.97;;
56511;SDS011;42408;53.238;5.686;2022-07-29T15:57:03;11.63;;;4.22;;
56511;SDS011;42408;53.238;5.686;2022-07-29T15:59:32;9.45;;;4.15;;
56511;SDS011;42408;53.238;5.686;2022-07-29T16:01:58;10.88;;;4.25;;
56511;SDS011;42408;53.238;5.686;2022-07-29T16:04:24;11.73;;;3.97;;
56511;SDS011;42408;53.238;5.686;2022-07-29T16:06:50;8.65;;;4.22;;
56511;SDS011;42408;53.238;5.686;2022-07-29T16:09:16;8.77;;;4.25;;
56511;SDS011;42408;53.238;5.686;2022-07-29T16:11:42;10.45;;;3.95;;
56511;SDS011;42408;53.238;5.686;2022-07-29T16:14:10;14.52;;;5.10;;
56511;SDS011;42408;53.238;5.686;2022-07-29T16:16:36;11.50;;;3.67;;
56511;SDS011;42408;53.238;5.686;2022-07-29T16:19:02;17.20;;;4.88;;
56511;SDS011;42408;53.238;5.686;2022-07-29T16:21:29;8.35;;;4.00;;